Time;durP1;ratioP1;P1;durP2;ratioP2;P2;SDS_P1;SDS_P2;PMS_P1;PMS_P2;Temp;Humidity;BMP_temperature;BMP_pressure;BME280_temperature;BME280_humidity;BME280_pressure;Samples;Min_cycle;Max_cycle;Signal;HPM_P1;HPM_P2
2021/06/24 00:00:46;;;;;;;1.50;0.90;;;16.90;98.20;;;;;;4951509;29;20467;-79
2021/06/24 00:03:13;;;;;;;1.57;1.00;;;17.00;98.20;;;;;;4931816;29;20538;-79
2021/06/24 00:05:40;;;;;;;1.50;1.00;;;17.00;98.20;;;;;;4952440;29;21041;-79
2021/06/24 00:08:07;;;;;;;1.50;1.00;;;17.00;98.20;;;;;;4952718;28;20493;-80
2021/06/24 00:10:37;;;;;;;1.50;0.97;;;17.00;98.20;;;;;;4954659;28;20471;-80
2021/06/24 00:13:04;;;;;;;1.50;1.00;;;16.90;98.20;;;;;;4959796;28;20886;-79
2021/06/24 00:15:32;;;;;;;1.57;1.00;;;17.00;98.20;;;;;;4953622;29;20525;-80
2021/06/24 00:18:00;;;;;;;1.50;1.00;;;17.00;98.20;;;;;;4958021;28;20537;-80
2021/06/24 00:20:27;;;;;;;1.50;0.90;;;17.00;98.20;;;;;;4943071;29;20466;-79
2021/06/24 00:22:54;;;;;;;1.50;1.00;;;17.00;98.20;;;;;;4958486;28;20490;-78
2021/06/24 00:25:21;;;;;;;1.50;1.00;;;17.00;98.20;;;;;;4947628;28;20531;-79
2021/06/24 00:27:50;;;;;;;1.50;1.00;;;17.00;98.20;;;;;;4960240;28;20493;-80
2021/06/24 00:30:18;;;;;;;1.50;1.10;;;17.00;98.20;;;;;;4949044;29;20502;-79
2021/06/24 00:32:45;;;;;;;1.53;0.90;;;17.00;98.20;;;;;;4960675;28;20731;-78
2021/06/24 00:35:14;;;;;;;1.50;0.90;;;17.00;98.20;;;;;;4953536;28;20490;-79
2021/06/24 00:37:41;;;;;;;1.50;1.00;;;17.00;98.20;;;;;;4957634;28;20482;-79
2021/06/24 00:40:10;;;;;;;1.50;0.90;;;17.00;98.20;;;;;;4951846;28;20466;-79
2021/06/24 00:42:38;;;;;;;1.50;0.90;;;17.00;98.20;;;;;;4958053;28;20482;-79
2021/06/24 00:45:08;;;;;;;1.50;1.00;;;17.00;98.20;;;;;;4951053;28;20482;-78
2021/06/24 00:47:35;;;;;;;1.50;1.00;;;17.00;98.20;;;;;;4958173;28;20581;-78
2021/06/24 00:50:03;;;;;;;1.50;1.00;;;17.00;98.20;;;;;;4951364;28;20994;-80
2021/06/24 00:52:30;;;;;;;1.50;1.00;;;17.00;98.20;;;;;;4951486;28;20494;-80
2021/06/24 00:54:57;;;;;;;1.50;1.00;;;17.00;98.20;;;;;;4952905;28;20525;-79
2021/06/24 00:57:26;;;;;;;1.57;1.00;;;17.00;98.20;;;;;;4956356;28;20482;-79
2021/06/24 00:59:53;;;;;;;1.50;1.00;;;17.00;98.20;;;;;;4954905;28;20466;-80
2021/06/24 01:02:22;;;;;;;1.57;1.10;;;17.10;98.20;;;;;;4955076;28;20486;-79
2021/06/24 01:04:49;;;;;;;1.50;1.00;;;17.10;98.20;;;;;;4950998;28;20491;-79
2021/06/24 01:07:16;;;;;;;1.50;1.00;;;17.00;98.20;;;;;;4953606;28;20997;-79
2021/06/24 01:09:43;;;;;;;1.50;1.00;;;17.00;98.20;;;;;;4949106;28;20519;-79
2021/06/24 01:12:11;;;;;;;1.50;0.90;;;17.10;98.20;;;;;;4948749;28;20489;-78
2021/06/24 01:14:38;;;;;;;1.50;1.00;;;17.00;98.20;;;;;;4955334;28;20567;-78
2021/06/24 01:17:06;;;;;;;1.50;0.97;;;17.00;98.20;;;;;;4946984;28;20486;-79
2021/06/24 01:19:34;;;;;;;1.53;1.00;;;17.00;98.20;;;;;;4953396;28;20467;-79
2021/06/24 01:22:02;;;;;;;1.57;1.00;;;17.00;98.20;;;;;;4949706;28;20482;-80
2021/06/24 01:24:30;;;;;;;1.50;0.90;;;16.90;98.20;;;;;;4954388;28;20466;-79
2021/06/24 01:26:57;;;;;;;1.50;1.00;;;16.90;98.20;;;;;;4951256;28;20532;-78
2021/06/24 01:29:24;;;;;;;1.50;1.10;;;16.90;98.20;;;;;;4955274;28;20954;-79
2021/06/24 01:31:52;;;;;;;1.50;1.00;;;16.80;98.20;;;;;;4946977;28;20550;-79
2021/06/24 01:34:19;;;;;;;1.50;1.00;;;16.80;98.20;;;;;;4956630;28;20582;-78
2021/06/24 01:36:46;;;;;;;1.50;1.00;;;16.80;98.20;;;;;;4950177;28;20511;-78
2021/06/24 01:39:14;;;;;;;1.50;1.00;;;16.70;98.20;;;;;;4958000;28;20478;-78
2021/06/24 01:41:43;;;;;;;1.53;1.00;;;16.70;98.20;;;;;;4946589;28;20586;-79
2021/06/24 01:44:11;;;;;;;1.50;1.00;;;16.60;98.20;;;;;;4958083;28;20490;-79
2021/06/24 01:46:38;;;;;;;1.53;1.00;;;16.60;98.20;;;;;;4944682;28;20993;-79
2021/06/24 01:49:05;;;;;;;1.50;0.90;;;16.60;98.20;;;;;;4957024;28;20758;-77
2021/06/24 01:51:32;;;;;;;1.50;1.00;;;16.60;98.20;;;;;;4944415;28;20481;-79
2021/06/24 01:53:59;;;;;;;1.50;0.97;;;16.60;98.20;;;;;;4959613;28;20558;-79
2021/06/24 01:56:26;;;;;;;1.50;1.00;;;16.60;98.20;;;;;;4950007;28;20917;-80
2021/06/24 01:58:54;;;;;;;1.50;1.00;;;16.60;98.20;;;;;;4961260;28;20559;-78
2021/06/24 02:01:21;;;;;;;1.50;0.90;;;16.60;98.20;;;;;;4947288;28;20809;-79
2021/06/24 02:03:48;;;;;;;1.50;1.00;;;16.60;98.20;;;;;;4965581;28;20498;-80
2021/06/24 02:06:15;;;;;;;1.53;1.00;;;16.60;98.20;;;;;;4951286;28;20543;-78
2021/06/24 02:08:42;;;;;;;1.50;1.00;;;16.60;98.20;;;;;;4963628;28;20506;-79
2021/06/24 02:11:09;;;;;;;1.50;0.90;;;16.60;98.20;;;;;;4948374;28;20574;-78
2021/06/24 02:13:36;;;;;;;1.53;1.00;;;16.60;98.20;;;;;;4968436;28;20513;-79
2021/06/24 02:16:05;;;;;;;1.50;1.00;;;16.60;98.20;;;;;;4941151;28;20546;-80
2021/06/24 02:18:32;;;;;;;1.53;1.00;;;16.70;98.20;;;;;;4964834;28;20464;-80
2021/06/24 02:20:58;;;;;;;1.50;0.90;;;16.70;98.20;;;;;;4950110;28;20470;-79
2021/06/24 02:23:25;;;;;;;1.50;1.00;;;16.70;98.20;;;;;;4967912;28;20995;-80
2021/06/24 02:25:52;;;;;;;1.50;1.00;;;16.70;98.20;;;;;;4948293;28;20569;-78
2021/06/24 02:28:20;;;;;;;1.50;0.90;;;16.70;98.20;;;;;;4971578;28;20493;-80
2021/06/24 02:30:47;;;;;;;1.53;1.00;;;16.70;98.20;;;;;;4953614;29;20642;-78
2021/06/24 02:33:18;;;;;;;1.50;0.90;;;16.70;98.20;;;;;;4973096;28;20475;-78
2021/06/24 02:35:48;;;;;;;1.50;0.90;;;16.70;98.20;;;;;;4961239;28;20486;-79
2021/06/24 02:38:15;;;;;;;1.73;1.40;;;16.70;98.20;;;;;;4941159;29;20523;-79
2021/06/24 02:40:42;;;;;;;1.50;1.00;;;16.60;98.20;;;;;;4949747;28;20729;-80
2021/06/24 02:43:12;;;;;;;1.53;1.00;;;16.60;98.20;;;;;;4962615;28;20572;-78
2021/06/24 02:45:40;;;;;;;1.50;1.00;;;16.60;98.20;;;;;;4953944;28;20534;-79
2021/06/24 02:48:08;;;;;;;1.50;1.00;;;16.50;98.20;;;;;;4964470;28;20509;-79
2021/06/24 02:50:37;;;;;;;1.50;1.00;;;16.50;98.20;;;;;;4952300;28;20467;-80
2021/06/24 02:53:04;;;;;;;1.50;1.00;;;16.50;98.20;;;;;;4961412;28;20481;-79
2021/06/24 02:55:31;;;;;;;1.50;1.00;;;16.50;98.20;;;;;;4947757;29;20521;-79
2021/06/24 02:57:58;;;;;;;1.53;1.00;;;16.50;98.20;;;;;;4963411;28;20520;-79
2021/06/24 03:00:26;;;;;;;1.50;1.00;;;16.50;98.20;;;;;;4954612;28;20568;-76
2021/06/24 03:02:53;;;;;;;1.50;1.00;;;16.50;98.20;;;;;;4959239;28;21016;-77
2021/06/24 03:05:21;;;;;;;1.50;1.00;;;16.50;98.20;;;;;;4950010;28;20861;-76
2021/06/24 03:07:50;;;;;;;1.50;1.00;;;16.50;98.20;;;;;;4957905;28;20753;-77
2021/06/24 03:10:20;;;;;;;1.50;0.97;;;16.50;98.20;;;;;;4953731;29;20458;-77
2021/06/24 03:12:47;;;;;;;1.53;1.00;;;16.50;98.20;;;;;;4956680;28;20491;-76
2021/06/24 03:15:15;;;;;;;1.50;1.00;;;16.50;98.20;;;;;;4948688;28;20587;-75
2021/06/24 03:17:42;;;;;;;1.57;1.00;;;16.50;98.20;;;;;;4948905;28;20573;-76
2021/06/24 03:20:12;;;;;;;1.50;1.00;;;16.50;98.20;;;;;;4953193;28;20467;-78
2021/06/24 03:22:39;;;;;;;1.50;1.00;;;16.50;98.20;;;;;;4950589;28;20581;-75
2021/06/24 03:25:12;;;;;;;1.53;1.00;;;16.50;98.20;;;;;;4948387;28;20782;-76
2021/06/24 03:27:39;;;;;;;1.53;1.00;;;16.50;98.20;;;;;;4953839;28;20583;-76
2021/06/24 03:30:10;;;;;;;1.50;1.00;;;16.60;98.20;;;;;;4947488;28;20467;-77
2021/06/24 03:32:37;;;;;;;1.50;1.00;;;16.60;98.20;;;;;;4958232;28;20844;-77
2021/06/24 03:35:04;;;;;;;1.50;0.90;;;16.60;98.20;;;;;;4953334;28;20569;-77
2021/06/24 03:37:31;;;;;;;1.50;1.00;;;16.60;98.20;;;;;;4956089;28;21000;-77
2021/06/24 03:39:58;;;;;;;1.53;1.00;;;16.60;98.20;;;;;;4949717;28;20812;-77
2021/06/24 03:42:27;;;;;;;1.50;1.00;;;16.60;98.20;;;;;;4954980;28;20581;-77
2021/06/24 03:44:54;;;;;;;1.50;1.00;;;16.60;98.20;;;;;;4947145;28;20538;-77
2021/06/24 03:47:21;;;;;;;1.50;1.00;;;16.60;98.20;;;;;;4949346;28;20525;-77
2021/06/24 03:49:47;;;;;;;1.53;1.00;;;16.60;98.20;;;;;;4953001;28;20498;-77
2021/06/24 03:52:14;;;;;;;1.50;1.00;;;16.60;98.20;;;;;;4955669;28;20513;-79
2021/06/24 03:54:41;;;;;;;1.53;1.00;;;16.70;98.20;;;;;;4955220;28;20929;-79
2021/06/24 03:57:08;;;;;;;1.50;1.00;;;16.70;98.20;;;;;;4953170;28;20529;-76
2021/06/24 03:59:37;;;;;;;1.97;1.73;;;16.70;98.20;;;;;;4954233;28;20502;-77
2021/06/24 04:02:04;;;;;;;1.50;1.00;;;16.60;98.20;;;;;;4952934;28;20573;-77
2021/06/24 04:04:32;;;;;;;1.50;1.00;;;16.60;98.20;;;;;;4955525;28;20478;-76
2021/06/24 04:06:58;;;;;;;1.50;1.00;;;16.60;98.20;;;;;;4947340;28;20474;-77
2021/06/24 04:09:25;;;;;;;1.50;1.00;;;16.60;98.20;;;;;;4950664;28;20677;-77
2021/06/24 04:11:52;;;;;;;1.50;1.00;;;16.60;98.20;;;;;;4944130;28;20633;-77
2021/06/24 04:14:19;;;;;;;1.50;1.00;;;16.60;98.20;;;;;;4950432;28;20499;-77
2021/06/24 04:16:47;;;;;;;1.50;1.00;;;16.60;98.20;;;;;;4948970;28;20517;-80
2021/06/24 04:19:16;;;;;;;1.50;0.90;;;16.60;98.20;;;;;;4958298;28;20495;-79
2021/06/24 04:21:44;;;;;;;1.50;1.00;;;16.60;98.20;;;;;;4947379;28;20632;-79
2021/06/24 04:24:11;;;;;;;1.50;1.00;;;16.60;98.20;;;;;;4959243;28;21421;-79
2021/06/24 04:26:38;;;;;;;1.50;0.90;;;16.60;98.20;;;;;;4951058;28;20525;-79
2021/06/24 04:29:05;;;;;;;1.50;1.00;;;16.70;98.20;;;;;;4959208;28;20486;-80
2021/06/24 04:31:32;;;;;;;2.23;2.03;;;16.70;98.20;;;;;;4953041;28;20520;-79
2021/06/24 04:34:00;;;;;;;1.50;1.00;;;16.70;98.20;;;;;;4958436;28;21506;-76
2021/06/24 04:36:28;;;;;;;1.50;1.00;;;16.80;98.20;;;;;;4946589;28;20972;-76
2021/06/24 04:38:54;;;;;;;1.50;1.00;;;16.80;98.20;;;;;;4962726;28;20914;-77
2021/06/24 04:41:21;;;;;;;1.50;1.00;;;16.90;98.20;;;;;;4946768;28;20510;-75
2021/06/24 04:43:48;;;;;;;1.50;1.00;;;16.90;98.20;;;;;;4960501;28;20503;-78
2021/06/24 04:46:15;;;;;;;1.53;0.90;;;17.00;98.20;;;;;;4940738;28;20489;-77
2021/06/24 04:48:42;;;;;;;1.50;1.00;;;17.10;98.20;;;;;;4964274;28;20534;-77
2021/06/24 04:51:11;;;;;;;1.50;0.97;;;17.10;98.20;;;;;;4940419;28;20949;-76
2021/06/24 04:53:38;;;;;;;1.50;0.90;;;17.20;98.20;;;;;;4961402;28;20985;-78
2021/06/24 04:56:05;;;;;;;1.50;1.00;;;17.30;98.20;;;;;;4942519;28;20494;-81
2021/06/24 04:58:32;;;;;;;1.50;0.90;;;17.40;98.20;;;;;;4965328;28;20859;-79
2021/06/24 05:01:00;;;;;;;1.50;1.00;;;17.40;98.20;;;;;;4938544;28;20470;-79
2021/06/24 05:03:27;;;;;;;1.50;1.00;;;17.60;98.20;;;;;;4964338;28;20510;-78
2021/06/24 05:05:54;;;;;;;1.70;1.37;;;17.60;98.20;;;;;;4939667;28;20511;-76
2021/06/24 05:08:24;;;;;;;1.50;1.00;;;17.60;98.20;;;;;;4961451;28;20495;-77
2021/06/24 05:10:51;;;;;;;1.50;1.00;;;17.60;98.20;;;;;;4940737;28;20478;-76
2021/06/24 05:13:18;;;;;;;1.50;1.00;;;17.60;98.20;;;;;;4962176;28;20516;-75
2021/06/24 05:15:46;;;;;;;1.50;0.97;;;17.60;98.20;;;;;;4947556;28;20785;-78
2021/06/24 05:18:15;;;;;;;1.50;1.00;;;17.60;98.20;;;;;;4959220;23;20573;-81
2021/06/24 05:20:44;;;;;;;1.50;0.97;;;17.60;98.20;;;;;;4995108;28;20461;-78
2021/06/24 05:23:13;;;;;;;1.50;1.00;;;17.60;98.20;;;;;;4981172;28;20469;-81
2021/06/24 05:25:41;;;;;;;1.93;1.23;;;17.60;98.20;;;;;;4993723;28;20779;-82
2021/06/24 05:28:08;;;;;;;1.50;0.90;;;17.60;98.20;;;;;;5001323;28;20561;-81
2021/06/24 05:30:36;;;;;;;1.50;0.90;;;17.60;98.20;;;;;;4983136;28;20466;-81
2021/06/24 05:33:04;;;;;;;1.50;1.00;;;17.60;98.20;;;;;;4987337;28;20556;-82
2021/06/24 05:35:31;;;;;;;1.50;0.90;;;17.50;98.20;;;;;;4976769;28;20493;-80
2021/06/24 05:37:58;;;;;;;1.50;1.00;;;17.50;98.20;;;;;;4989014;28;20482;-81
2021/06/24 05:40:25;;;;;;;1.50;0.90;;;17.60;98.20;;;;;;4981831;28;20466;-81
2021/06/24 05:42:54;;;;;;;1.50;1.00;;;17.60;98.20;;;;;;4982169;28;20913;-82
2021/06/24 05:45:27;;;;;;;1.50;1.00;;;17.70;98.20;;;;;;4985343;28;20593;-81
2021/06/24 05:47:54;;;;;;;1.50;1.00;;;17.70;98.20;;;;;;4968692;28;20493;-80
2021/06/24 05:51:12;;;;;;;1.50;1.00;;;17.80;98.20;;;;;;4972502;28;20838;-81
2021/06/24 05:53:40;;;;;;;1.50;1.00;;;17.90;98.20;;;;;;4957483;28;20988;-82
2021/06/24 05:56:07;;;;;;;1.50;1.00;;;18.00;98.20;;;;;;4968186;28;20475;-82
2021/06/24 05:58:35;;;;;;;1.50;1.00;;;17.90;98.20;;;;;;4990290;28;20514;-81
2021/06/24 06:01:02;;;;;;;1.50;1.00;;;17.90;98.20;;;;;;4967880;28;21107;-82
2021/06/24 06:03:37;;;;;;;1.50;0.90;;;17.90;98.20;;;;;;4992932;28;20537;-82
2021/06/24 06:06:04;;;;;;;1.50;1.00;;;17.90;98.20;;;;;;4963941;28;20570;-81
2021/06/24 06:08:32;;;;;;;1.50;1.00;;;17.80;98.20;;;;;;4995843;28;20493;-81
2021/06/24 06:10:59;;;;;;;1.50;1.00;;;17.80;98.20;;;;;;4964119;28;20474;-82
2021/06/24 06:13:26;;;;;;;1.50;0.90;;;17.80;98.20;;;;;;4983876;28;20839;-82
2021/06/24 06:15:56;;;;;;;1.50;1.00;;;17.80;98.20;;;;;;4964012;28;21162;-81
2021/06/24 06:18:28;;;;;;;1.50;0.90;;;17.80;98.20;;;;;;4976604;28;20505;-80
2021/06/24 06:21:03;;;;;;;1.50;0.90;;;17.80;98.20;;;;;;4962402;28;20577;-80
2021/06/24 06:23:31;;;;;;;1.50;0.90;;;17.90;98.20;;;;;;4985354;28;20458;-80
2021/06/24 06:26:07;;;;;;;1.50;0.90;;;17.90;98.20;;;;;;4966107;28;20462;-80
2021/06/24 06:28:39;;;;;;;1.50;0.90;;;18.00;98.20;;;;;;4991772;28;20502;-81
2021/06/24 06:31:12;;;;;;;1.50;0.90;;;18.00;98.20;;;;;;4966675;28;20467;-81
2021/06/24 06:33:47;;;;;;;1.50;0.90;;;18.00;98.20;;;;;;4988533;28;20470;-82
2021/06/24 06:36:18;;;;;;;1.50;0.93;;;18.10;98.20;;;;;;4970128;28;20569;-82
2021/06/24 06:38:45;;;;;;;1.50;1.00;;;18.10;98.20;;;;;;4984476;28;20479;-82
2021/06/24 06:41:12;;;;;;;1.50;1.00;;;18.20;98.20;;;;;;4970988;28;20494;-83
2021/06/24 06:43:39;;;;;;;1.50;0.90;;;18.30;98.20;;;;;;4984193;28;20540;-83
2021/06/24 06:46:06;;;;;;;1.50;1.00;;;18.30;98.20;;;;;;4972723;28;20465;-83
2021/06/24 06:48:35;;;;;;;1.50;0.90;;;18.30;98.20;;;;;;4987457;28;20505;-82
2021/06/24 06:51:02;;;;;;;1.50;0.90;;;18.20;98.20;;;;;;4968419;28;20462;-82
2021/06/24 06:53:29;;;;;;;1.50;0.90;;;18.20;98.20;;;;;;4995845;28;20473;-82
2021/06/24 06:55:57;;;;;;;1.50;1.00;;;18.20;98.20;;;;;;4968438;28;20512;-82
2021/06/24 06:58:24;;;;;;;1.50;0.90;;;18.20;98.20;;;;;;4989185;28;20477;-82
2021/06/24 07:00:51;;;;;;;1.50;0.90;;;18.20;98.20;;;;;;4969833;28;20470;-82
2021/06/24 07:03:19;;;;;;;1.50;0.90;;;18.20;98.20;;;;;;4987882;28;20467;-83
2021/06/24 07:05:47;;;;;;;1.50;1.00;;;18.20;98.20;;;;;;4978777;28;20892;-82
2021/06/24 07:08:14;;;;;;;1.50;0.90;;;18.20;98.20;;;;;;4964600;28;20526;-82
2021/06/24 07:10:41;;;;;;;1.50;0.90;;;18.20;98.20;;;;;;4975896;28;20779;-82
2021/06/24 07:13:08;;;;;;;1.50;1.00;;;18.30;98.20;;;;;;4978361;28;20493;-82
2021/06/24 07:15:36;;;;;;;1.50;0.90;;;18.30;98.20;;;;;;4983910;28;20964;-82
2021/06/24 07:18:03;;;;;;;1.50;0.90;;;18.40;98.20;;;;;;4987470;28;20513;-83
2021/06/24 07:20:30;;;;;;;1.50;0.90;;;18.50;98.20;;;;;;4981071;28;20466;-82
2021/06/24 07:22:58;;;;;;;1.50;0.90;;;18.60;98.20;;;;;;4983804;28;20807;-83
2021/06/24 07:25:25;;;;;;;1.57;1.17;;;18.70;98.20;;;;;;4988885;28;20458;-83
2021/06/24 07:27:52;;;;;;;1.90;1.20;;;18.80;98.20;;;;;;4986655;28;20943;-82
2021/06/24 07:30:21;;;;;;;1.60;1.20;;;18.90;98.20;;;;;;4988622;28;20890;-82
2021/06/24 07:32:48;;;;;;;1.50;0.90;;;18.90;98.20;;;;;;4987984;28;20495;-83
2021/06/24 07:35:15;;;;;;;1.57;1.00;;;18.90;98.20;;;;;;4996572;28;20470;-81
2021/06/24 07:37:44;;;;;;;1.50;1.00;;;18.80;98.20;;;;;;4983639;28;20763;-83
2021/06/24 07:40:13;;;;;;;1.50;0.90;;;18.90;98.20;;;;;;4978323;28;20463;-81
2021/06/24 07:42:40;;;;;;;1.50;0.90;;;18.90;98.20;;;;;;4982062;28;20907;-81
2021/06/24 07:45:08;;;;;;;1.50;0.90;;;18.90;98.20;;;;;;4974602;28;20528;-82
2021/06/24 07:47:35;;;;;;;1.50;0.90;;;19.00;98.20;;;;;;4982161;28;20501;-82
2021/06/24 07:50:04;;;;;;;1.50;0.90;;;19.10;98.20;;;;;;4985865;28;20938;-83
2021/06/24 07:52:32;;;;;;;1.60;1.30;;;19.20;98.20;;;;;;4976608;28;20882;-83
2021/06/24 07:54:59;;;;;;;1.50;0.90;;;19.40;98.20;;;;;;4983743;28;20466;-83
2021/06/24 07:57:28;;;;;;;1.50;0.90;;;19.50;98.20;;;;;;4988622;28;20484;-83
2021/06/24 07:59:55;;;;;;;1.50;0.90;;;19.60;98.20;;;;;;4985459;28;20529;-81
2021/06/24 08:02:24;;;;;;;1.60;1.10;;;19.80;98.20;;;;;;4984314;28;20488;-83
2021/06/24 08:04:51;;;;;;;1.50;0.90;;;19.90;98.20;;;;;;4996373;28;20497;-82
2021/06/24 08:07:18;;;;;;;1.50;0.90;;;20.10;98.20;;;;;;4984397;28;20485;-77
2021/06/24 08:09:45;;;;;;;1.53;1.00;;;20.20;96.80;;;;;;4985510;28;20494;-80
2021/06/24 08:12:12;;;;;;;1.50;0.90;;;20.20;96.40;;;;;;4975500;28;20478;-84
2021/06/24 08:14:41;;;;;;;1.50;0.90;;;20.40;96.90;;;;;;4981461;28;20470;-83
2021/06/24 08:17:08;;;;;;;1.53;0.90;;;20.50;96.10;;;;;;4972659;28;21079;-82
2021/06/24 08:19:34;;;;;;;1.50;0.90;;;20.80;95.60;;;;;;4995630;28;20520;-83
2021/06/24 08:22:02;;;;;;;1.50;0.90;;;20.90;95.60;;;;;;4974559;28;21054;-83
2021/06/24 08:24:29;;;;;;;1.50;0.97;;;21.10;95.00;;;;;;4990889;28;20965;-84
2021/06/24 08:26:56;;;;;;;1.50;0.90;;;21.20;94.20;;;;;;4984525;28;20476;-78
2021/06/24 08:29:23;;;;;;;1.50;0.90;;;21.20;93.90;;;;;;4989486;28;20532;-80
2021/06/24 08:31:51;;;;;;;1.50;0.90;;;21.30;93.80;;;;;;4972382;28;20540;-82
2021/06/24 08:34:19;;;;;;;1.53;0.90;;;21.40;94.80;;;;;;4988329;28;20470;-82
2021/06/24 08:36:46;;;;;;;1.50;0.90;;;21.60;94.70;;;;;;4978488;28;20484;-80
2021/06/24 08:39:13;;;;;;;1.57;0.90;;;21.90;94.40;;;;;;4980742;28;20493;-78
2021/06/24 08:41:40;;;;;;;1.53;0.90;;;22.30;94.20;;;;;;4972193;28;20517;-79
2021/06/24 08:44:07;;;;;;;1.53;0.90;;;22.80;90.90;;;;;;4982202;28;20490;-81
2021/06/24 08:46:39;;;;;;;1.50;0.90;;;23.30;91.40;;;;;;4972651;28;20520;-81
2021/06/24 08:49:08;;;;;;;1.53;0.90;;;23.70;90.20;;;;;;4989094;28;20497;-84
2021/06/24 08:51:35;;;;;;;1.50;0.90;;;24.10;88.60;;;;;;4980258;28;20525;-82
2021/06/24 08:54:03;;;;;;;1.57;0.90;;;24.20;87.30;;;;;;4996589;28;20556;-85
2021/06/24 08:56:30;;;;;;;1.57;0.90;;;24.30;87.30;;;;;;4974504;28;20497;-80
2021/06/24 08:58:57;;;;;;;1.50;0.90;;;24.50;86.90;;;;;;4986192;28;20551;-83
2021/06/24 09:01:49;;;;;;;1.57;0.90;;;24.50;86.00;;;;;;4974748;28;20573;-84
2021/06/24 09:04:19;;;;;;;1.50;0.90;;;24.40;86.80;;;;;;4995420;28;20513;-83
2021/06/24 09:06:47;;;;;;;1.50;0.90;;;24.20;86.90;;;;;;4979611;28;20484;-83
2021/06/24 09:09:28;;;;;;;1.50;0.90;;;24.20;87.60;;;;;;4998622;28;20497;-81
2021/06/24 09:12:03;;;;;;;1.50;0.90;;;24.10;87.10;;;;;;4982939;28;20476;-83
2021/06/24 09:14:44;;;;;;;1.50;0.90;;;24.00;87.20;;;;;;4982288;28;20807;-82
2021/06/24 09:17:13;;;;;;;1.50;0.90;;;23.80;87.60;;;;;;4986978;28;20506;-83
2021/06/24 09:19:43;;;;;;;1.53;0.90;;;23.70;87.40;;;;;;4991069;28;20516;-82
2021/06/24 09:22:12;;;;;;;1.50;0.80;;;23.70;88.30;;;;;;4981535;28;20912;-83
2021/06/24 09:24:41;;;;;;;1.50;0.90;;;23.60;88.80;;;;;;4963106;28;20484;-84
2021/06/24 09:27:25;;;;;;;1.50;0.90;;;23.70;89.10;;;;;;4971890;28;20521;-83
2021/06/24 09:30:01;;;;;;;1.50;0.90;;;23.60;87.90;;;;;;4977432;28;20504;-81
2021/06/24 09:32:33;;;;;;;1.50;0.90;;;23.50;88.70;;;;;;4980554;28;20884;-79
2021/06/24 09:35:03;;;;;;;1.50;0.90;;;23.40;89.20;;;;;;4966117;28;20500;-82
2021/06/24 09:37:54;;;;;;;1.50;0.90;;;23.40;88.70;;;;;;4984439;28;20485;-81
2021/06/24 09:40:22;;;;;;;1.50;0.90;;;23.30;89.20;;;;;;4973645;28;20470;-81
2021/06/24 09:42:49;;;;;;;1.50;0.90;;;23.20;89.40;;;;;;4984485;28;20566;-84
2021/06/24 09:45:17;;;;;;;1.50;0.90;;;23.10;89.50;;;;;;4984673;28;20462;-81
2021/06/24 09:47:44;;;;;;;1.50;0.90;;;23.00;90.60;;;;;;4980136;28;20484;-83
2021/06/24 09:50:12;;;;;;;1.50;0.97;;;23.00;90.50;;;;;;4985690;28;20497;-83
2021/06/24 09:52:39;;;;;;;1.50;0.83;;;23.00;90.50;;;;;;4983371;28;20485;-79
2021/06/24 09:55:09;;;;;;;1.50;0.90;;;23.00;90.20;;;;;;4978155;28;20474;-81
2021/06/24 09:57:37;;;;;;;1.50;0.90;;;23.10;90.10;;;;;;4987476;28;20480;-80
2021/06/24 10:00:22;;;;;;;1.50;0.90;;;23.10;89.60;;;;;;4985293;28;20521;-82
2021/06/24 10:03:03;;;;;;;1.50;0.90;;;23.20;89.90;;;;;;4988355;28;20473;-81
2021/06/24 10:05:32;;;;;;;1.50;0.90;;;23.40;89.10;;;;;;4977719;28;20466;-81
2021/06/24 10:07:59;;;;;;;1.83;0.90;;;23.60;88.30;;;;;;4976160;28;20486;-83
2021/06/24 10:10:26;;;;;;;1.50;0.90;;;23.70;88.50;;;;;;4983178;28;20560;-81
2021/06/24 10:12:53;;;;;;;1.50;0.90;;;23.70;87.40;;;;;;4991197;28;20476;-81
2021/06/24 10:15:22;;;;;;;1.60;1.20;;;23.70;87.70;;;;;;4978506;28;20473;-82
2021/06/24 10:17:56;;;;;;;1.50;0.90;;;23.70;87.10;;;;;;4987513;28;21002;-81
2021/06/24 10:20:24;;;;;;;1.50;0.90;;;23.70;87.90;;;;;;4983971;28;20453;-81
2021/06/24 10:22:57;;;;;;;1.60;1.10;;;23.70;86.80;;;;;;4970875;28;20482;-82
2021/06/24 10:25:25;;;;;;;1.50;0.90;;;23.50;85.80;;;;;;4979892;28;20476;-81
2021/06/24 10:27:55;;;;;;;1.50;0.90;;;23.50;87.00;;;;;;4980437;28;20849;-80
2021/06/24 10:30:24;;;;;;;1.50;0.90;;;23.50;87.20;;;;;;4994145;28;21090;-83
2021/06/24 10:33:00;;;;;;;1.50;0.90;;;23.70;87.20;;;;;;4984369;28;20919;-82
2021/06/24 10:35:29;;;;;;;1.50;0.90;;;23.80;87.70;;;;;;4984059;28;20469;-84
2021/06/24 10:38:02;;;;;;;1.50;0.90;;;23.80;87.50;;;;;;4988524;28;20485;-81
2021/06/24 10:40:33;;;;;;;1.50;0.90;;;24.00;86.10;;;;;;4982792;28;20489;-82
2021/06/24 10:43:02;;;;;;;1.50;0.90;;;24.10;86.00;;;;;;4984956;28;20831;-83
2021/06/24 10:45:29;;;;;;;1.50;0.90;;;24.20;86.30;;;;;;4988069;28;21053;-81
2021/06/24 10:47:58;;;;;;;1.60;1.10;;;24.40;85.50;;;;;;4981733;28;20482;-80
2021/06/24 10:50:45;;;;;;;1.50;0.87;;;24.50;85.30;;;;;;4979127;28;20550;-80
2021/06/24 10:53:49;;;;;;;1.57;0.90;;;24.60;83.80;;;;;;4968685;28;21009;-81
2021/06/24 10:56:36;;;;;;;1.50;0.90;;;24.80;85.00;;;;;;4975766;28;20468;-83
2021/06/24 10:59:20;;;;;;;1.50;0.90;;;24.80;83.40;;;;;;4982903;28;20497;-82
2021/06/24 11:01:52;;;;;;;1.50;0.90;;;24.80;83.80;;;;;;4971827;28;20578;-82
2021/06/24 11:04:32;;;;;;;1.50;0.90;;;24.70;82.90;;;;;;4980358;28;20597;-82
2021/06/24 11:07:01;;;;;;;1.50;0.80;;;24.50;84.10;;;;;;4974587;28;20486;-84
2021/06/24 11:09:32;;;;;;;1.50;0.90;;;24.40;84.80;;;;;;4978823;28;20556;-80
2021/06/24 11:11:59;;;;;;;1.50;0.80;;;24.10;84.80;;;;;;4974147;28;20482;-80
2021/06/24 11:14:55;;;;;;;1.50;0.90;;;24.00;84.50;;;;;;4992234;28;20470;-80
2021/06/24 11:17:43;;;;;;;1.50;0.90;;;24.00;85.80;;;;;;4974314;28;20485;-82
2021/06/24 11:20:18;;;;;;;1.50;0.90;;;24.00;84.80;;;;;;4986898;23;20505;-78
2021/06/24 11:22:50;;;;;;;1.53;1.00;;;24.00;84.50;;;;;;4952647;28;20515;-82
2021/06/24 11:25:19;;;;;;;1.50;0.90;;;23.80;85.20;;;;;;4969601;28;20466;-78
2021/06/24 11:27:47;;;;;;;1.60;1.03;;;23.60;85.80;;;;;;4975011;28;21157;-79
2021/06/24 11:30:15;;;;;;;1.50;0.90;;;23.50;85.90;;;;;;4968188;28;20858;-77
2021/06/24 11:32:52;;;;;;;1.50;1.00;;;23.30;86.30;;;;;;4957732;28;20889;-76
2021/06/24 11:35:43;;;;;;;1.50;0.87;;;23.20;87.40;;;;;;4970839;28;20458;-77
2021/06/24 11:38:10;;;;;;;1.50;0.90;;;23.20;87.10;;;;;;4975423;28;20564;-77
2021/06/24 11:40:38;;;;;;;1.50;0.90;;;23.20;87.50;;;;;;4966915;28;20513;-78
2021/06/24 11:43:07;;;;;;;1.50;0.90;;;23.20;87.50;;;;;;4980172;28;21019;-77
2021/06/24 11:45:35;;;;;;;1.50;0.90;;;23.10;87.20;;;;;;4968592;28;20474;-81
2021/06/24 11:48:02;;;;;;;1.50;0.90;;;23.10;87.00;;;;;;4979192;28;21015;-76
2021/06/24 12:04:18;;;;;;;1.50;0.90;;;23.60;85.10;;;;;;4975950;28;20535;-80
2021/06/24 12:06:48;;;;;;;1.50;0.90;;;23.60;85.50;;;;;;4959774;28;20855;-80
2021/06/24 12:09:20;;;;;;;1.50;0.83;;;23.50;85.80;;;;;;4967205;28;20585;-79
2021/06/24 12:11:49;;;;;;;1.50;0.90;;;23.50;86.50;;;;;;4963971;28;20486;-79
2021/06/24 12:14:19;;;;;;;1.50;0.90;;;23.60;86.70;;;;;;4966896;28;20552;-81
2021/06/24 12:17:11;;;;;;;1.50;0.90;;;23.50;84.90;;;;;;4961799;28;20956;-78
2021/06/24 12:19:52;;;;;;;1.50;0.90;;;23.30;86.90;;;;;;4966076;28;20519;-80
2021/06/24 12:22:25;;;;;;;1.50;0.90;;;23.30;86.30;;;;;;4951018;28;20473;-78
2021/06/24 12:24:54;;;;;;;1.97;1.10;;;23.30;86.40;;;;;;4968046;28;20462;-81
2021/06/24 12:27:25;;;;;;;1.50;0.90;;;23.40;86.80;;;;;;4975665;28;20477;-78
2021/06/24 12:29:54;;;;;;;1.50;0.90;;;23.40;86.00;;;;;;4977054;28;20793;-79
2021/06/24 12:32:22;;;;;;;1.50;0.90;;;23.50;86.20;;;;;;4971996;28;20492;-80
2021/06/24 12:34:50;;;;;;;1.50;0.90;;;23.60;86.00;;;;;;4976051;28;20489;-79
2021/06/24 12:37:30;;;;;;;1.50;0.90;;;23.70;85.90;;;;;;4971718;28;20533;-78
2021/06/24 12:39:58;;;;;;;1.50;0.90;;;23.70;85.40;;;;;;4975595;28;20861;-77
2021/06/24 12:42:26;;;;;;;1.50;0.90;;;23.70;85.40;;;;;;4957401;28;20479;-79
2021/06/24 12:44:53;;;;;;;1.50;0.90;;;23.90;85.40;;;;;;4972084;28;20466;-80
2021/06/24 12:47:41;;;;;;;1.50;0.90;;;23.90;85.00;;;;;;4955610;28;20486;-79
2021/06/24 12:50:20;;;;;;;1.50;0.80;;;24.00;84.70;;;;;;4962241;28;20502;-78
2021/06/24 12:52:50;;;;;;;1.50;0.90;;;24.00;84.40;;;;;;4954893;28;20483;-80
2021/06/24 12:55:44;;;;;;;1.50;1.10;;;23.90;84.10;;;;;;4961977;28;20501;-79
2021/06/24 12:58:15;;;;;;;1.50;0.90;;;23.80;84.70;;;;;;4954937;28;20541;-78
2021/06/24 13:00:51;;;;;;;1.50;0.90;;;23.80;84.40;;;;;;4963185;28;20573;-77
2021/06/24 13:03:18;;;;;;;1.50;1.00;;;23.90;84.60;;;;;;4952561;28;20520;-77
2021/06/24 13:05:45;;;;;;;1.60;1.33;;;24.00;84.30;;;;;;4967532;28;20751;-80
2021/06/24 13:08:12;;;;;;;1.43;0.90;;;23.90;83.20;;;;;;4949809;28;20507;-76
2021/06/24 13:10:49;;;;;;;1.50;0.90;;;23.80;84.80;;;;;;4965106;28;20521;-78
2021/06/24 13:13:31;;;;;;;1.50;0.90;;;23.70;84.20;;;;;;4952101;28;20728;-77